Time;durP1;ratioP1;P1;durP2;ratioP2;P2;SDS_P1;SDS_P2;PMS_P1;PMS_P2;Temp;Humidity;BMP_temperature;BMP_pressure;BME280_temperature;BME280_humidity;BME280_pressure;Samples;Min_cycle;Max_cycle;Signal;HPM_P1;HPM_P2
2023/03/21 00:00:24;;;;;;;31.27;21.45;;;;;;;10.32;72.21;100375.59;5058280;28;20032;-70
2023/03/21 00:02:49;;;;;;;30.17;20.40;;;;;;;10.25;73.02;100375.25;5048517;28;20039;-70
2023/03/21 00:05:15;;;;;;;29.85;20.60;;;;;;;10.18;72.78;100374.09;5048502;28;20055;-70
2023/03/21 00:07:41;;;;;;;31.42;20.23;;;;;;;10.10;73.37;100368.56;5059123;28;20056;-70
2023/03/21 00:10:06;;;;;;;31.08;21.98;;;;;;;10.11;73.07;100380.97;5054736;28;20115;-69
2023/03/21 00:12:36;;;;;;;30.55;21.15;;;;;;;9.97;73.15;100364.31;5060914;28;20045;-70
2023/03/21 00:15:07;;;;;;;33.05;21.00;;;;;;;9.99;74.05;100368.56;5057175;28;20021;-64
2023/03/21 00:17:33;;;;;;;31.38;20.23;;;;;;;9.99;74.57;100368.56;5056889;28;20119;-63
2023/03/21 00:19:59;;;;;;;28.25;19.65;;;;;;;9.95;75.09;100360.91;5046154;28;20467;-63
2023/03/21 00:22:26;;;;;;;30.50;18.95;;;;;;;9.91;75.19;100365.69;5045073;28;20048;-64
2023/03/21 00:24:52;;;;;;;30.88;20.50;;;;;;;9.81;75.60;100354.06;5050149;28;20012;-64
2023/03/21 00:27:20;;;;;;;29.80;20.15;;;;;;;9.76;75.80;100355.41;5054925;28;20036;-65
2023/03/21 00:29:49;;;;;;;27.33;19.20;;;;;;;9.74;75.38;100349.34;5058093;28;20017;-63
2023/03/21 00:32:16;;;;;;;24.63;18.17;;;;;;;9.72;76.02;100352.13;5046825;28;20025;-63
2023/03/21 00:34:42;;;;;;;29.25;19.25;;;;;;;9.71;77.09;100350.44;5045731;28;20033;-64
2023/03/21 00:37:08;;;;;;;25.48;18.52;;;;;;;9.84;77.61;100342.22;5056496;28;20033;-64
2023/03/21 00:39:35;;;;;;;31.15;19.67;;;;;;;9.78;77.41;100346.28;5053420;28;20501;-64
2023/03/21 00:42:01;;;;;;;29.23;18.98;;;;;;;9.70;77.85;100348.72;5045239;28;20100;-65
2023/03/21 00:44:26;;;;;;;26.40;19.08;;;;;;;9.70;77.57;100350.59;5045233;28;20028;-63
2023/03/21 00:46:51;;;;;;;27.05;18.27;;;;;;;9.66;77.65;100344.63;5045108;28;20475;-63
2023/03/21 00:49:19;;;;;;;28.58;19.17;;;;;;;9.58;78.10;100336.38;5045525;28;20505;-64
2023/03/21 00:51:45;;;;;;;24.90;18.73;;;;;;;9.62;78.20;100348.53;5054015;28;20028;-63
2023/03/21 00:54:11;;;;;;;29.77;18.50;;;;;;;9.54;78.86;100331.41;5059074;28;20028;-64
2023/03/21 00:56:37;;;;;;;26.65;17.77;;;;;;;9.56;79.29;100345.50;5043681;28;20115;-64
2023/03/21 00:59:03;;;;;;;26.17;19.00;;;;;;;9.50;79.68;100340.66;5047408;28;20638;-63
2023/03/21 01:01:30;;;;;;;30.75;19.25;;;;;;;9.63;79.72;100347.53;5045192;28;20028;-64
2023/03/21 01:04:04;;;;;;;29.33;19.67;;;;;;;9.67;79.33;100348.16;5051893;28;20013;-63
2023/03/21 01:06:31;;;;;;;26.45;18.35;;;;;;;9.70;79.41;100337.19;5051226;28;20849;-65
2023/03/21 01:08:57;;;;;;;31.83;20.40;;;;;;;9.64;79.70;100346.56;5052713;28;20032;-65
2023/03/21 01:11:26;;;;;;;27.15;19.48;;;;;;;9.68;79.89;100341.81;5058707;28;20029;-65
2023/03/21 01:13:53;;;;;;;29.85;20.00;;;;;;;9.70;80.02;100337.19;5050019;28;20394;-63
2023/03/21 01:16:18;;;;;;;27.10;18.88;;;;;;;9.67;80.05;100337.44;5053177;28;20032;-64
2023/03/21 01:18:44;;;;;;;32.70;18.75;;;;;;;9.66;80.15;100331.22;5061228;28;20057;-64
2023/03/21 01:21:12;;;;;;;29.38;19.13;;;;;;;9.64;80.28;100335.84;5050226;28;20602;-64
2023/03/21 01:23:40;;;;;;;24.85;18.70;;;;;;;9.49;80.98;100318.41;5049379;28;20048;-65
2023/03/21 01:26:07;;;;;;;26.45;18.50;;;;;;;9.38;81.60;100323.78;5045672;28;20051;-65
2023/03/21 01:28:34;;;;;;;31.95;18.17;;;;;;;9.37;81.74;100335.47;5044622;28;20040;-64
2023/03/21 01:31:01;;;;;;;27.42;19.05;;;;;;;9.28;82.34;100322.84;5045230;28;20040;-64
2023/03/21 01:33:28;;;;;;;26.48;18.88;;;;;;;9.21;82.86;100317.16;5043190;28;20112;-64
2023/03/21 01:35:53;;;;;;;32.33;20.42;;;;;;;9.21;83.01;100321.66;5048833;28;20028;-65
2023/03/21 01:38:19;;;;;;;25.75;18.58;;;;;;;9.14;83.32;100315.97;5045987;28;20043;-64
2023/03/21 01:40:47;;;;;;;30.45;19.35;;;;;;;9.09;83.68;100315.50;5058004;28;20036;-65
2023/03/21 01:43:29;;;;;;;34.03;20.77;;;;;;;9.26;84.37;100322.13;5046340;28;20028;-63
2023/03/21 01:46:20;;;;;;;29.80;18.92;;;;;;;9.42;84.05;100311.88;5052489;28;20035;-69
2023/03/21 01:48:50;;;;;;;25.80;18.42;;;;;;;9.25;84.04;100309.72;5047589;28;20537;-69
2023/03/21 01:51:16;;;;;;;23.77;16.67;;;;;;;9.22;84.54;100309.97;5062435;28;20028;-70
2023/03/21 01:53:42;;;;;;;24.88;18.25;;;;;;;9.24;84.84;100318.72;5057067;28;20501;-69
2023/03/21 01:56:13;;;;;;;27.95;18.25;;;;;;;9.28;85.24;100322.84;5053031;28;20025;-70
2023/03/21 01:58:41;;;;;;;29.60;19.02;;;;;;;9.25;85.54;100320.41;5050295;28;20158;-69
2023/03/21 02:01:09;;;;;;;25.92;18.13;;;;;;;9.13;85.83;100311.56;5058328;28;20028;-69
2023/03/21 02:03:36;;;;;;;29.40;18.30;;;;;;;9.22;86.54;100318.00;5055880;28;20024;-69
2023/03/21 02:06:11;;;;;;;25.00;17.95;;;;;;;9.12;86.87;100317.91;5052137;28;20233;-69
2023/03/21 02:08:36;;;;;;;23.70;18.00;;;;;;;9.08;87.31;100303.09;5064377;28;20063;-70
2023/03/21 02:11:03;;;;;;;25.65;17.70;;;;;;;9.13;87.59;100300.03;5047687;28;20675;-70
2023/03/21 02:13:28;;;;;;;27.75;18.38;;;;;;;9.16;87.45;100305.16;5054139;28;20447;-63
2023/03/21 02:16:05;;;;;;;27.08;17.73;;;;;;;9.03;87.98;100302.59;5043722;28;20049;-64
2023/03/21 02:18:55;;;;;;;27.65;17.73;;;;;;;9.03;88.24;100307.13;5043538;28;20131;-64
2023/03/21 02:21:32;;;;;;;28.58;18.20;;;;;;;9.07;89.05;100301.38;5042761;28;20479;-62
2023/03/21 02:24:24;;;;;;;27.55;18.77;;;;;;;9.05;88.96;100300.66;5044700;28;20154;-64
2023/03/21 02:26:58;;;;;;;28.08;17.73;;;;;;;8.99;89.38;100297.63;5061776;28;20025;-64
2023/03/21 02:29:29;;;;;;;;;;;;;;;9.08;89.04;100299.56;5051702;28;20071;-64
2023/03/21 02:32:15;;;;;;;24.52;17.40;;;;;;;9.04;89.50;100296.31;5049579;28;20369;-64
2023/03/21 02:34:40;;;;;;;23.88;16.27;;;;;;;8.94;89.74;100305.19;5051229;28;20017;-70
2023/03/21 02:37:15;;;;;;;25.45;17.92;;;;;;;8.90;89.60;100311.78;5044751;28;20032;-70
2023/03/21 02:40:12;;;;;;;25.35;17.83;;;;;;;8.77;89.68;100292.34;5057545;28;20170;-70
2023/03/21 02:42:50;;;;;;;27.67;17.45;;;;;;;8.85;89.98;100311.28;5065819;28;20029;-69
2023/03/21 02:45:19;;;;;;;28.83;17.52;;;;;;;8.79;90.07;100306.44;5057276;28;20032;-70
2023/03/21 02:47:50;;;;;;;26.33;18.23;;;;;;;8.84;90.47;100310.41;5056050;28;20450;-70
2023/03/21 02:50:22;;;;;;;21.90;16.70;;;;;;;8.74;91.15;100317.47;5055153;28;20582;-69
2023/03/21 02:52:48;;;;;;;29.52;19.00;;;;;;;8.67;90.98;100315.41;5055685;28;20371;-70
2023/03/21 02:55:21;;;;;;;22.02;17.15;;;;;;;8.60;91.33;100311.53;5056506;28;20032;-68
2023/03/21 02:57:49;;;;;;;24.45;17.45;;;;;;;8.52;91.91;100304.13;5046940;28;20040;-63
2023/03/21 03:00:26;;;;;;;24.83;17.73;;;;;;;8.47;91.86;100310.81;5040801;28;20032;-62
2023/03/21 03:02:53;;;;;;;23.52;17.13;;;;;;;8.42;92.48;100303.16;5042666;28;20028;-62
2023/03/21 03:05:22;;;;;;;22.85;16.25;;;;;;;8.40;92.67;100307.78;5044706;28;20054;-62
2023/03/21 03:08:06;;;;;;;22.65;17.35;;;;;;;8.38;93.48;100303.53;5042589;28;20055;-64
2023/03/21 03:10:50;;;;;;;25.65;18.35;;;;;;;8.46;93.73;100306.44;5042317;28;20024;-64
2023/03/21 03:13:34;;;;;;;;;;;;;;;8.45;94.47;100313.59;5041909;28;20099;-63
2023/03/21 03:16:00;;;;;;;24.58;16.38;;;;;;;8.47;94.14;100316.16;5042334;28;19931;-63
2023/03/21 03:18:38;;;;;;;23.23;16.90;;;;;;;8.54;94.54;100325.38;5043825;28;20037;-63
2023/03/21 03:21:17;;;;;;;26.30;18.05;;;;;;;8.58;94.16;100313.50;5046471;28;20056;-63
2023/03/21 03:24:07;;;;;;;22.10;16.98;;;;;;;8.52;94.34;100305.97;5051524;28;20031;-64
2023/03/21 03:26:40;;;;;;;21.75;17.25;;;;;;;8.48;94.45;100312.53;5047849;28;20065;-64
2023/03/21 03:29:11;;;;;;;25.80;17.42;;;;;;;8.49;94.63;100301.72;5054677;28;20028;-64
2023/03/21 03:32:05;;;;;;;23.42;17.17;;;;;;;8.60;94.22;100314.22;5057895;28;20037;-63
2023/03/21 03:34:38;;;;;;;23.13;16.27;;;;;;;8.49;95.05;100307.06;5050146;28;20036;-63
2023/03/21 03:37:06;;;;;;;25.05;17.48;;;;;;;8.43;95.22;100304.03;5062402;28;20040;-62
2023/03/21 03:39:40;;;;;;;22.25;16.42;;;;;;;8.42;95.73;100313.03;5045811;28;20036;-63
2023/03/21 03:42:16;;;;;;;23.20;16.80;;;;;;;8.43;96.21;100318.25;5044616;28;20120;-70
2023/03/21 03:44:42;;;;;;;25.52;16.90;;;;;;;8.55;95.77;100308.41;5047474;28;20419;-70
2023/03/21 03:47:19;;;;;;;21.45;16.08;;;;;;;8.57;96.17;100309.09;5048362;28;20028;-69
2023/03/21 03:50:00;;;;;;;26.63;16.65;;;;;;;8.54;96.62;100309.34;5055481;28;20510;-69
2023/03/21 03:52:31;;;;;;;20.27;15.60;;;;;;;8.62;96.40;100312.28;5056792;28;20090;-67
2023/03/21 03:54:57;;;;;;;23.20;16.50;;;;;;;8.66;96.05;100321.75;5051349;28;20089;-68
2023/03/21 03:57:25;;;;;;;21.02;15.80;;;;;;;8.59;96.71;100317.88;5051208;28;20104;-69
2023/03/21 03:59:51;;;;;;;21.10;15.38;;;;;;;8.67;95.39;100313.59;5059910;28;20038;-69
2023/03/21 04:02:17;;;;;;;19.95;15.25;;;;;;;8.56;95.94;100308.28;5059959;28;20143;-69
2023/03/21 04:04:42;;;;;;;19.70;15.65;;;;;;;8.56;96.24;100312.75;5054508;28;20029;-70
2023/03/21 04:07:08;;;;;;;22.52;15.57;;;;;;;8.52;96.58;100308.66;5056365;28;20502;-69
2023/03/21 04:09:34;;;;;;;19.40;15.07;;;;;;;8.51;96.22;100304.25;5059655;28;20032;-69
2023/03/21 04:12:00;;;;;;;20.17;14.65;;;;;;;8.49;96.41;100312.41;5059803;28;20520;-68
2023/03/21 04:14:25;;;;;;;20.33;15.55;;;;;;;8.62;96.18;100313.16;5051991;28;20045;-69
2023/03/21 04:16:51;;;;;;;21.10;15.38;;;;;;;8.68;95.55;100309.94;5046624;28;20086;-70
2023/03/21 04:19:20;;;;;;;21.77;16.10;;;;;;;8.62;95.87;100306.94;5056689;28;20493;-69
2023/03/21 04:21:46;;;;;;;22.60;14.77;;;;;;;8.62;96.31;100312.28;5056666;28;20685;-70
2023/03/21 04:24:12;;;;;;;19.85;14.50;;;;;;;8.55;96.58;100306.56;5052841;28;20544;-69
2023/03/21 04:26:38;;;;;;;20.52;16.40;;;;;;;8.49;96.87;100301.72;5052102;28;20753;-69
2023/03/21 04:29:04;;;;;;;24.63;16.42;;;;;;;8.59;96.45;100315.19;5053738;28;20033;-70
2023/03/21 04:31:33;;;;;;;24.92;14.88;;;;;;;8.50;96.55;100299.88;5067224;28;20028;-69
2023/03/21 04:34:08;;;;;;;21.13;16.10;;;;;;;8.48;96.61;100316.03;5061753;28;20050;-70
2023/03/21 04:36:37;;;;;;;18.23;14.48;;;;;;;8.42;96.73;100316.53;5052347;28;20025;-70
2023/03/21 04:39:10;;;;;;;19.13;14.45;;;;;;;8.31;96.27;100299.63;5060703;28;20363;-70
2023/03/21 04:41:36;;;;;;;19.42;15.55;;;;;;;8.42;96.29;100327.22;5046800;28;20474;-69
2023/03/21 04:44:02;;;;;;;20.40;15.95;;;;;;;8.22;96.73;100293.19;5054649;28;20025;-70
2023/03/21 04:46:27;;;;;;;22.58;16.48;;;;;;;8.29;96.95;100304.28;5057424;28;20479;-70
2023/03/21 04:48:53;;;;;;;22.00;16.52;;;;;;;8.30;96.62;100316.66;5058632;28;20055;-69
2023/03/21 04:51:19;;;;;;;20.80;15.80;;;;;;;8.28;97.18;100323.91;5058507;28;20029;-69
2023/03/21 04:53:48;;;;;;;21.73;15.93;;;;;;;8.19;97.12;100321.97;5055157;28;20025;-70
2023/03/21 04:56:14;;;;;;;18.23;14.70;;;;;;;8.21;96.87;100331.53;5049348;28;20703;-69
2023/03/21 04:58:41;;;;;;;21.45;16.02;;;;;;;8.08;97.35;100308.56;5052390;28;20474;-69
2023/03/21 05:01:07;;;;;;;21.20;16.00;;;;;;;8.19;97.79;100338.00;5052154;28;20033;-69
2023/03/21 05:03:38;;;;;;;21.50;16.25;;;;;;;8.14;97.76;100337.47;5049085;28;20075;-70
2023/03/21 05:06:08;;;;;;;20.42;15.90;;;;;;;8.06;97.49;100321.22;5051769;28;20039;-69
2023/03/21 05:08:36;;;;;;;20.58;16.63;;;;;;;8.06;97.79;100327.38;5047399;28;20047;-70
2023/03/21 05:11:03;;;;;;;23.17;16.63;;;;;;;7.99;98.16;100320.81;5049711;28;20044;-69
2023/03/21 05:13:28;;;;;;;22.30;16.35;;;;;;;8.17;97.99;100330.09;5046462;28;20053;-64
2023/03/21 05:15:54;;;;;;;20.92;15.07;;;;;;;8.32;98.10;100344.13;5044821;28;21324;-63
2023/03/21 05:18:23;;;;;;;20.08;14.98;;;;;;;8.24;98.39;100334.00;5048712;28;20580;-64
2023/03/21 05:20:54;;;;;;;23.33;15.43;;;;;;;8.32;98.37;100344.13;5043055;28;20679;-63
2023/03/21 05:23:21;;;;;;;21.27;16.13;;;;;;;8.27;98.68;100341.78;5044540;28;20036;-65
2023/03/21 05:25:46;;;;;;;19.40;14.85;;;;;;;8.26;98.30;100350.75;5046191;28;20025;-64
2023/03/21 05:28:12;;;;;;;22.35;15.48;;;;;;;8.41;98.38;100343.38;5049388;28;20094;-64
2023/03/21 05:30:37;;;;;;;21.27;16.23;;;;;;;8.55;96.96;100340.47;5048701;28;20102;-64
2023/03/21 05:33:03;;;;;;;19.80;15.50;;;;;;;8.55;96.26;100341.31;5044754;28;20032;-63
2023/03/21 05:35:29;;;;;;;19.63;14.50;;;;;;;8.52;97.90;100343.38;5046966;28;20056;-62
2023/03/21 05:37:54;;;;;;;19.38;14.55;;;;;;;8.46;97.75;100334.03;5057001;28;20037;-63
2023/03/21 05:40:20;;;;;;;20.13;15.32;;;;;;;8.41;98.10;100328.19;5060088;28;20074;-64
2023/03/21 05:42:47;;;;;;;19.85;15.32;;;;;;;8.45;98.58;100340.34;5043699;28;20112;-64
2023/03/21 05:45:13;;;;;;;21.67;15.15;;;;;;;8.52;98.50;100327.34;5050579;28;20033;-64
2023/03/21 05:47:38;;;;;;;22.08;16.52;;;;;;;8.52;98.84;100330.03;5042521;28;20057;-64
2023/03/21 05:50:05;;;;;;;19.45;15.40;;;;;;;8.56;99.17;100331.47;5044623;28;20060;-72
2023/03/21 05:52:31;;;;;;;22.60;16.10;;;;;;;8.72;98.25;100337.31;5053904;28;20028;-70
2023/03/21 05:54:56;;;;;;;23.73;15.43;;;;;;;8.84;98.21;100326.47;5062712;28;20027;-70
2023/03/21 05:57:22;;;;;;;22.13;15.43;;;;;;;9.02;96.77;100325.00;5050987;28;20376;-70
2023/03/21 05:59:48;;;;;;;19.42;14.50;;;;;;;9.15;95.83;100324.81;5054754;28;20060;-70
2023/03/21 06:02:13;;;;;;;22.45;15.20;;;;;;;9.28;94.95;100330.88;5056507;28;20024;-70
2023/03/21 06:04:39;;;;;;;21.83;15.13;;;;;;;9.30;95.60;100345.00;5055622;28;20028;-70
2023/03/21 06:07:04;;;;;;;19.85;13.90;;;;;;;9.25;95.42;100336.47;5045770;28;20087;-69
2023/03/21 06:09:30;;;;;;;22.05;15.02;;;;;;;9.22;95.98;100337.59;5049360;28;20044;-69
2023/03/21 06:11:56;;;;;;;17.80;14.40;;;;;;;9.28;95.76;100346.94;5044058;28;20025;-69
2023/03/21 06:14:23;;;;;;;30.02;19.42;;;;;;;9.45;94.72;100341.06;5046032;28;20055;-70
2023/03/21 06:16:49;;;;;;;21.83;15.35;;;;;;;9.47;95.23;100332.88;5041139;28;20541;-70
2023/03/21 06:19:15;;;;;;;25.10;16.02;;;;;;;9.62;95.01;100339.63;5046505;28;20437;-70
2023/03/21 06:21:41;;;;;;;20.10;15.80;;;;;;;9.68;94.99;100345.34;5048227;28;20028;-70
2023/03/21 06:24:08;;;;;;;21.65;14.88;;;;;;;9.62;95.64;100329.78;5055887;28;20706;-70
2023/03/21 06:26:33;;;;;;;19.42;14.80;;;;;;;9.82;95.11;100347.72;5044255;28;20103;-70
2023/03/21 06:28:59;;;;;;;21.38;14.80;;;;;;;9.81;95.39;100323.72;5047957;28;20094;-69
2023/03/21 06:31:25;;;;;;;21.55;15.60;;;;;;;10.17;95.15;100350.97;5045212;28;20048;-69
2023/03/21 06:33:51;;;;;;;25.17;15.32;;;;;;;10.39;94.46;100356.19;5044277;28;20021;-68
2023/03/21 06:36:17;;;;;;;23.13;14.23;;;;;;;10.50;94.35;100349.88;5055547;28;20468;-69
2023/03/21 06:38:43;;;;;;;24.10;14.13;;;;;;;10.67;92.98;100357.28;5048662;28;20032;-69
2023/03/21 06:41:09;;;;;;;18.30;14.38;;;;;;;10.86;91.24;100360.91;5048282;28;20089;-69
2023/03/21 06:43:35;;;;;;;21.73;13.80;;;;;;;11.03;90.49;100364.78;5052567;28;20109;-68
2023/03/21 06:46:01;;;;;;;20.55;13.38;;;;;;;11.10;89.98;100347.16;5044206;28;20572;-70
2023/03/21 06:48:27;;;;;;;18.27;12.88;;;;;;;11.38;88.89;100360.63;5047973;28;20036;-69
2023/03/21 06:50:53;;;;;;;14.50;11.80;;;;;;;11.57;86.93;100360.66;5047510;28;20056;-70
2023/03/21 06:53:23;;;;;;;15.48;9.98;;;;;;;11.79;84.16;100358.72;5051671;28;20036;-71
2023/03/21 06:55:49;;;;;;;13.48;9.80;;;;;;;11.92;84.80;100361.97;5049123;28;20033;-69
2023/03/21 06:58:15;;;;;;;14.40;9.55;;;;;;;12.27;79.50;100354.13;5048270;28;20025;-70
2023/03/21 07:00:41;;;;;;;12.63;10.10;;;;;;;12.44;78.28;100362.31;5051336;28;20445;-70
2023/03/21 07:03:06;;;;;;;14.00;9.45;;;;;;;12.58;77.46;100363.72;5054732;28;20028;-70
2023/03/21 07:05:35;;;;;;;12.27;9.57;;;;;;;12.70;77.16;100346.38;5047700;28;20025;-70
2023/03/21 07:08:01;;;;;;;11.25;9.05;;;;;;;12.91;76.84;100360.47;5048155;28;20036;-70
2023/03/21 07:10:26;;;;;;;13.90;9.45;;;;;;;13.08;76.03;100357.00;5060236;28;20032;-70
2023/03/21 07:12:52;;;;;;;11.10;8.52;;;;;;;13.36;73.91;100353.31;5056800;28;20052;-69
2023/03/21 07:15:17;;;;;;;10.85;8.65;;;;;;;13.54;74.73;100356.84;5062598;28;20029;-69
2023/03/21 07:17:43;;;;;;;13.13;9.18;;;;;;;13.84;72.79;100353.81;5066482;28;20033;-69
2023/03/21 07:20:11;;;;;;;10.25;8.65;;;;;;;14.03;70.97;100342.00;5066606;28;20075;-69
2023/03/21 07:22:37;;;;;;;11.00;9.50;;;;;;;14.20;69.93;100358.16;5058060;28;20474;-69
2023/03/21 07:25:04;;;;;;;10.80;8.50;;;;;;;14.28;68.71;100355.53;5061668;28;20024;-70
2023/03/21 07:27:29;;;;;;;8.88;7.47;;;;;;;14.37;68.65;100348.34;5058149;28;20422;-70
2023/03/21 07:29:55;;;;;;;12.75;8.98;;;;;;;14.56;69.11;100356.25;5069054;28;20257;-70
2023/03/21 07:32:20;;;;;;;13.07;8.15;;;;;;;15.13;64.80;100359.06;5068463;28;20028;-70
2023/03/21 07:34:46;;;;;;;8.93;7.75;;;;;;;15.25;65.27;100355.06;5054326;28;20033;-70
2023/03/21 07:37:11;;;;;;;8.02;6.85;;;;;;;15.50;65.50;100364.13;5050941;28;20494;-70
2023/03/21 07:39:37;;;;;;;13.15;7.50;;;;;;;15.71;63.34;100356.44;5069242;28;20071;-63
2023/03/21 07:42:02;;;;;;;12.82;7.95;;;;;;;16.03;60.05;100366.44;5056251;28;20725;-64
2023/03/21 07:44:29;;;;;;;9.25;7.55;;;;;;;16.07;60.83;100348.84;5066863;28;20039;-63
2023/03/21 07:46:54;;;;;;;9.80;7.30;;;;;;;16.41;59.84;100353.03;5065171;28;20127;-63
2023/03/21 07:49:20;;;;;;;9.48;8.48;;;;;;;16.69;59.04;100343.56;5067090;28;20119;-63
2023/03/21 07:51:46;;;;;;;9.63;6.95;;;;;;;17.11;58.28;100344.09;5066576;28;20051;-63
2023/03/21 07:54:11;;;;;;;8.63;6.85;;;;;;;17.66;56.17;100360.28;5065745;28;20085;-63
2023/03/21 07:56:36;;;;;;;9.55;7.40;;;;;;;17.76;54.93;100356.31;5055215;28;20029;-62
2023/03/21 07:59:04;;;;;;;8.52;6.65;;;;;;;18.08;54.45;100349.78;5045694;28;20079;-63
2023/03/21 08:01:30;;;;;;;8.48;7.13;;;;;;;18.58;52.96;100346.50;5051363;28;20117;-64
2023/03/21 08:03:55;;;;;;;8.80;6.63;;;;;;;19.22;51.61;100335.72;5046477;28;20090;-63
2023/03/21 08:06:22;;;;;;;16.27;6.90;;;;;;;21.49;44.67;100340.66;5046923;28;20025;-64
2023/03/21 08:08:47;;;;;;;7.82;6.95;;;;;;;21.77;43.86;100335.97;5045516;28;20021;-64
2023/03/21 08:11:13;;;;;;;7.38;6.68;;;;;;;22.80;41.83;100339.00;5047231;28;20029;-64
2023/03/21 08:13:39;;;;;;;6.80;6.05;;;;;;;23.45;40.52;100336.94;5045814;28;20135;-64
2023/03/21 08:16:06;;;;;;;8.90;6.70;;;;;;;24.21;39.02;100340.50;5046772;28;20669;-65
2023/03/21 08:18:32;;;;;;;7.80;6.35;;;;;;;25.60;36.29;100331.56;5049679;28;20099;-65
2023/03/21 08:20:57;;;;;;;8.05;5.68;;;;;;;25.70;35.95;100323.59;5056816;28;20122;-63
2023/03/21 08:23:24;;;;;;;6.80;5.60;;;;;;;26.58;34.07;100330.91;5046399;28;20040;-64
2023/03/21 08:25:51;;;;;;;8.40;6.25;;;;;;;26.78;34.11;100331.44;5051446;28;20577;-64
2023/03/21 08:28:17;;;;;;;8.32;5.78;;;;;;;28.14;31.14;100325.00;5059021;28;20490;-64
2023/03/21 08:30:42;;;;;;;8.93;4.97;;;;;;;28.29;31.20;100325.28;5046348;28;20138;-64
2023/03/21 08:33:08;;;;;;;6.22;5.57;;;;;;;28.80;30.15;100332.50;5057353;28;20013;-65
2023/03/21 08:35:34;;;;;;;6.22;5.18;;;;;;;28.26;30.05;100324.94;5061124;28;20036;-64
2023/03/21 08:38:01;;;;;;;6.10;5.10;;;;;;;27.15;31.16;100319.06;5065073;28;20039;-65
2023/03/21 08:40:27;;;;;;;6.28;4.88;;;;;;;26.24;32.48;100295.94;5060144;28;20037;-65
2023/03/21 08:42:53;;;;;;;6.97;5.68;;;;;;;25.55;33.74;100323.16;5044966;28;20040;-65
2023/03/21 08:45:19;;;;;;;9.45;6.10;;;;;;;25.27;34.45;100333.81;5051780;28;20025;-70
2023/03/21 08:47:45;;;;;;;8.85;6.38;;;;;;;26.32;32.70;100328.59;5057818;28;20110;-65
2023/03/21 08:50:14;;;;;;;6.95;5.45;;;;;;;26.36;32.32;100335.31;5046127;28;20033;-64
2023/03/21 08:52:40;;;;;;;6.93;6.22;;;;;;;26.61;32.24;100338.72;5050894;28;20036;-65
2023/03/21 08:55:06;;;;;;;7.45;5.38;;;;;;;27.03;31.77;100325.66;5044454;28;20032;-65
2023/03/21 08:57:32;;;;;;;7.45;5.70;;;;;;;27.43;30.90;100338.44;5053796;28;20117;-64
2023/03/21 08:59:57;;;;;;;6.70;5.32;;;;;;;27.28;31.10;100338.09;5045868;28;20060;-64
2023/03/21 09:02:23;;;;;;;7.22;6.03;;;;;;;27.59;30.62;100339.59;5053700;28;20064;-64
2023/03/21 09:04:48;;;;;;;7.05;5.22;;;;;;;27.45;31.05;100335.44;5058941;28;20024;-71
2023/03/21 09:07:15;;;;;;;9.20;5.93;;;;;;;27.05;31.30;100332.59;5066792;28;20042;-71
2023/03/21 09:09:41;;;;;;;5.80;5.13;;;;;;;26.95;30.96;100323.31;5052083;28;20120;-72
2023/03/21 09:12:07;;;;;;;9.38;5.10;;;;;;;26.32;31.65;100323.09;5061183;28;20084;-72
2023/03/21 09:14:34;;;;;;;5.45;4.35;;;;;;;25.83;32.14;100334.41;5058734;28;20044;-71
2023/03/21 09:16:59;;;;;;;6.50;4.40;;;;;;;25.57;32.88;100326.53;5059500;28;20029;-71
2023/03/21 09:19:26;;;;;;;5.43;3.85;;;;;;;26.58;31.66;100324.56;5059400;28;20035;-70
2023/03/21 09:21:52;;;;;;;4.13;3.40;;;;;;;27.92;29.13;100328.72;5056562;28;20028;-71
2023/03/21 09:24:18;;;;;;;4.25;3.03;;;;;;;28.91;27.98;100311.38;5059111;28;20040;-71
2023/03/21 09:26:44;;;;;;;6.20;2.83;;;;;;;29.65;27.24;100310.75;5056746;28;20216;-71
2023/03/21 09:29:10;;;;;;;3.67;3.13;;;;;;;29.60;27.25;100299.63;5057005;28;20043;-72
2023/03/21 09:31:35;;;;;;;6.40;3.33;;;;;;;29.93;26.61;100305.00;5056706;28;20036;-70
2023/03/21 09:34:01;;;;;;;4.43;3.28;;;;;;;30.61;26.34;100310.63;5055520;28;20021;-71
2023/03/21 09:36:27;;;;;;;7.15;3.13;;;;;;;30.53;26.36;100300.88;5059309;28;20032;-72
2023/03/21 09:38:55;;;;;;;3.58;3.03;;;;;;;30.53;26.35;100302.81;5063178;28;20032;-71
2023/03/21 09:41:23;;;;;;;5.00;3.08;;;;;;;31.23;25.30;100302.44;5053462;28;20025;-71
2023/03/21 09:44:13;;;;;;;4.03;2.97;;;;;;;31.02;25.37;100290.47;5057792;28;20031;-72
2023/03/21 09:46:50;;;;;;;7.55;3.75;;;;;;;30.79;26.23;100295.56;5052606;28;20040;-65
2023/03/21 09:49:20;;;;;;;5.22;3.15;;;;;;;31.42;25.51;100287.91;5045862;28;20066;-65
2023/03/21 09:51:52;;;;;;;3.22;2.30;;;;;;;31.88;24.55;100275.84;5056287;28;20123;-67
2023/03/21 09:54:32;;;;;;;3.38;2.63;;;;;;;31.69;25.12;100282.97;5056585;28;20032;-64
2023/03/21 09:57:03;;;;;;;7.15;2.67;;;;;;;31.44;24.55;100268.22;5048139;28;20425;-65
2023/03/21 09:59:36;;;;;;;3.00;2.17;;;;;;;31.66;23.92;100288.25;5050532;28;20078;-71
2023/03/21 10:02:19;;;;;;;4.95;3.05;;;;;;;31.52;24.61;100290.72;5056461;28;20021;-72
2023/03/21 10:04:45;;;;;;;10.13;2.90;;;;;;;31.44;24.71;100285.69;5058203;28;20098;-73
2023/03/21 10:07:17;;;;;;;4.15;2.30;;;;;;;31.86;23.12;100282.78;5056054;28;20024;-73
2023/03/21 10:09:45;;;;;;;2.60;2.30;;;;;;;30.78;24.24;100285.59;5056062;28;20024;-74
2023/03/21 10:12:23;;;;;;;2.47;1.63;;;;;;;29.56;25.69;100281.91;5053385;28;20036;-72
2023/03/21 10:14:56;;;;;;;6.32;2.58;;;;;;;30.32;25.19;100278.84;5063551;28;20487;-73
2023/03/21 10:17:34;;;;;;;3.22;2.80;;;;;;;30.16;25.40;100282.53;5053095;28;20526;-73
2023/03/21 10:20:21;;;;;;;3.55;2.70;;;;;;;29.57;26.09;100278.03;5052382;28;20043;-73
2023/03/21 10:22:50;;;;;;;8.98;2.88;;;;;;;28.23;27.79;100268.34;5041321;28;20028;-72
2023/03/21 10:25:40;;;;;;;4.45;2.30;;;;;;;28.17;27.51;100265.72;5060705;28;20039;-73
2023/03/21 10:28:10;;;;;;;4.32;2.28;;;;;;;26.25;29.39;100262.69;5056177;28;20051;-73
2023/03/21 10:30:47;;;;;;;5.20;2.65;;;;;;;25.34;30.95;100269.53;5065177;28;20102;-72
2023/03/21 10:33:19;;;;;;;3.85;1.67;;;;;;;24.98;31.76;100271.47;5061129;28;20017;-72
2023/03/21 10:35:55;;;;;;;3.33;2.05;;;;;;;24.22;31.95;100271.75;5052511;28;20028;-72
2023/03/21 10:38:24;;;;;;;4.45;2.28;;;;;;;24.14;31.98;100268.47;5068836;28;20056;-72
2023/03/21 10:40:50;;;;;;;4.97;3.38;;;;;;;23.82;33.08;100275.00;5065334;28;20033;-72
2023/03/21 10:43:25;;;;;;;4.53;2.83;;;;;;;22.98;34.39;100271.59;5058016;28;20032;-73
2023/03/21 10:45:51;;;;;;;6.35;2.65;;;;;;;22.50;35.53;100269.44;5057234;28;20673;-72
2023/03/21 10:48:17;;;;;;;8.75;2.78;;;;;;;22.67;34.46;100281.59;5054314;28;20466;-73
2023/03/21 10:50:46;;;;;;;3.47;2.60;;;;;;;22.34;34.94;100273.38;5052389;28;20037;-71
2023/03/21 10:53:20;;;;;;;4.50;2.90;;;;;;;22.37;35.33;100261.22;5055401;28;20029;-72
2023/03/21 10:55:56;;;;;;;4.68;2.70;;;;;;;22.15;36.24;100272.34;5055018;28;20033;-72
2023/03/21 10:58:26;;;;;;;3.85;3.33;;;;;;;21.90;36.77;100265.81;5054748;28;20490;-65
2023/03/21 11:01:03;;;;;;;3.92;3.38;;;;;;;21.63;37.52;100266.81;5049455;28;20025;-65
2023/03/21 11:03:32;;;;;;;10.00;3.58;;;;;;;21.79;37.11;100255.53;5056509;28;20588;-66
2023/03/21 11:06:14;;;;;;;5.35;3.40;;;;;;;21.66;37.79;100250.00;5063180;28;20052;-66
2023/03/21 11:08:52;;;;;;;5.72;3.60;;;;;;;21.84;37.74;100260.34;5047859;28;20060;-66
2023/03/21 11:11:34;;;;;;;3.63;2.80;;;;;;;21.67;37.49;100250.88;5043996;28;20052;-66
2023/03/21 11:14:05;;;;;;;11.55;3.17;;;;;;;21.29;37.94;100257.91;5053383;28;20045;-64
2023/03/21 11:16:40;;;;;;;6.30;2.15;;;;;;;21.14;37.27;100249.88;5055659;28;20540;-65
2023/03/21 11:19:17;;;;;;;3.88;2.25;;;;;;;21.16;37.92;100252.41;5041602;28;20224;-63
2023/03/21 11:21:43;;;;;;;5.68;2.10;;;;;;;20.77;38.45;100231.22;5056015;28;20671;-65
2023/03/21 11:24:15;;;;;;;5.97;2.25;;;;;;;20.82;37.40;100225.13;5047676;28;20016;-67
2023/03/21 11:26:43;;;;;;;2.97;2.33;;;;;;;20.61;37.92;100225.25;5055507;28;20115;-66